Time;durP1;ratioP1;P1;durP2;ratioP2;P2;SDS_P1;SDS_P2;PMS_P1;PMS_P2;Temp;Humidity;BMP_temperature;BMP_pressure;BME280_temperature;BME280_humidity;BME280_pressure;Samples;Min_cycle;Max_cycle;Signal;HPM_P1;HPM_P2
2022/12/27 00:00:12;;;;;;;6.78;2.30;;;7.20;70.10;;;;;;5049277;28;20041;-52
2022/12/27 00:02:40;;;;;;;4.55;2.83;;;7.20;70.10;;;;;;5026862;28;20049;-51
2022/12/27 00:05:10;;;;;;;4.53;2.53;;;7.10;70.10;;;;;;5022553;28;20117;-53
2022/12/27 00:07:37;;;;;;;6.22;2.53;;;7.20;70.20;;;;;;5022550;28;20113;-47
2022/12/27 00:10:06;;;;;;;3.80;2.70;;;7.10;70.20;;;;;;5021958;28;20041;-51
2022/12/27 00:12:33;;;;;;;6.78;2.60;;;7.10;70.20;;;;;;5019564;28;20132;-52
2022/12/27 00:14:59;;;;;;;4.22;1.98;;;7.10;70.30;;;;;;5021919;28;20050;-50
2022/12/27 00:17:26;;;;;;;8.23;2.08;;;7.10;70.30;;;;;;5017606;28;20041;-50
2022/12/27 00:19:53;;;;;;;4.95;2.03;;;7.10;70.40;;;;;;5031429;28;20045;-51
2022/12/27 00:22:20;;;;;;;4.45;2.65;;;7.10;70.40;;;;;;5021138;28;20042;-53
2022/12/27 00:24:47;;;;;;;3.03;1.73;;;7.10;70.40;;;;;;5021785;28;20046;-47
2022/12/27 00:27:16;;;;;;;7.32;2.38;;;7.10;70.50;;;;;;5025943;28;20144;-48
2022/12/27 00:29:52;;;;;;;5.80;2.35;;;7.10;70.60;;;;;;5007927;28;20510;-48
2022/12/27 00:32:19;;;;;;;6.78;2.38;;;7.10;70.60;;;;;;5024884;28;20521;-49
2022/12/27 00:34:45;;;;;;;8.02;2.58;;;7.10;70.70;;;;;;5023497;28;20079;-48
2022/12/27 00:37:12;;;;;;;7.65;2.90;;;7.10;70.80;;;;;;5028623;28;20037;-48
2022/12/27 00:39:39;;;;;;;4.90;2.22;;;7.10;70.80;;;;;;5025922;28;20124;-47
2022/12/27 00:42:08;;;;;;;6.85;2.42;;;7.10;70.90;;;;;;5028391;28;20091;-50
2022/12/27 00:44:35;;;;;;;7.03;1.92;;;7.10;71.00;;;;;;5022577;28;20056;-49
2022/12/27 00:47:01;;;;;;;5.60;2.30;;;7.10;71.10;;;;;;5024928;28;20045;-49
2022/12/27 00:49:28;;;;;;;5.13;2.05;;;7.10;71.10;;;;;;5027512;28;20121;-49
2022/12/27 00:51:55;;;;;;;3.78;1.70;;;7.10;71.10;;;;;;5026899;28;20041;-48
2022/12/27 00:54:26;;;;;;;7.13;2.60;;;7.10;71.10;;;;;;5029935;28;20125;-50
2022/12/27 00:56:55;;;;;;;4.97;2.60;;;7.10;71.20;;;;;;5019954;28;20409;-47
2022/12/27 00:59:22;;;;;;;6.18;2.58;;;7.10;71.20;;;;;;5021798;28;20529;-47
2022/12/27 01:01:51;;;;;;;3.95;2.22;;;7.10;71.30;;;;;;5027474;28;20051;-50
2022/12/27 01:04:18;;;;;;;3.80;2.28;;;7.10;71.30;;;;;;5022396;28;20088;-49
2022/12/27 01:06:44;;;;;;;6.25;2.40;;;7.10;71.40;;;;;;5029169;28;20052;-48
2022/12/27 01:09:11;;;;;;;8.07;2.28;;;7.10;71.50;;;;;;5022547;28;20038;-52
2022/12/27 01:11:40;;;;;;;5.85;2.40;;;7.10;71.50;;;;;;5012332;28;20033;-48
2022/12/27 01:14:12;;;;;;;4.13;2.13;;;7.10;71.60;;;;;;5024089;28;20394;-52
2022/12/27 01:16:39;;;;;;;3.92;2.53;;;7.10;71.60;;;;;;5022549;28;20544;-53
2022/12/27 01:19:06;;;;;;;5.35;2.03;;;7.10;71.70;;;;;;5030803;28;20049;-51
2022/12/27 01:21:32;;;;;;;5.40;2.35;;;7.10;72.30;;;;;;5028456;28;20541;-53
2022/12/27 01:23:59;;;;;;;3.50;2.03;;;7.10;71.80;;;;;;5024491;28;20124;-52
2022/12/27 01:26:27;;;;;;;4.78;2.88;;;7.10;71.90;;;;;;5028032;28;20029;-52
2022/12/27 01:28:53;;;;;;;3.88;2.25;;;7.10;71.90;;;;;;5026318;28;20405;-53
2022/12/27 01:31:23;;;;;;;5.78;2.63;;;7.10;71.90;;;;;;5028365;28;20041;-51
2022/12/27 01:34:00;;;;;;;7.70;2.58;;;7.10;72.00;;;;;;5016518;28;20506;-51
2022/12/27 01:36:28;;;;;;;6.05;2.10;;;7.10;72.10;;;;;;5022357;28;20148;-48
2022/12/27 01:38:59;;;;;;;3.50;1.80;;;7.00;72.00;;;;;;5028864;28;20045;-51
2022/12/27 01:47:10;;;;;;;4.20;1.58;;;7.00;72.30;;;;;;5018848;28;20502;-50
2022/12/27 01:49:52;;;;;;;6.22;2.28;;;7.00;72.20;;;;;;5030871;28;20091;-51
2022/12/27 01:52:20;;;;;;;5.63;2.10;;;7.00;72.30;;;;;;5028353;28;20121;-49
2022/12/27 01:54:46;;;;;;;6.75;2.28;;;7.00;72.20;;;;;;5028612;28;20038;-52
2022/12/27 01:57:14;;;;;;;3.70;2.20;;;7.00;72.40;;;;;;5010870;28;20128;-50
2022/12/27 01:59:41;;;;;;;4.43;2.13;;;7.00;72.50;;;;;;5024200;28;20400;-49
2022/12/27 02:02:08;;;;;;;4.47;1.83;;;7.00;72.50;;;;;;5027264;28;20071;-49
2022/12/27 02:04:41;;;;;;;5.57;2.38;;;7.00;72.60;;;;;;5010929;28;20049;-50
2022/12/27 02:07:11;;;;;;;6.57;2.67;;;7.00;72.70;;;;;;5011252;28;20045;-49
2022/12/27 02:09:44;;;;;;;7.78;2.75;;;7.00;72.80;;;;;;5011059;28;20084;-50
2022/12/27 02:12:18;;;;;;;6.32;2.35;;;7.00;72.90;;;;;;5027450;28;20052;-46
2022/12/27 02:14:48;;;;;;;2.93;1.90;;;7.00;72.90;;;;;;5023024;28;20141;-49
2022/12/27 02:17:29;;;;;;;7.50;2.00;;;7.00;72.90;;;;;;5028737;28;20297;-50
2022/12/27 02:20:13;;;;;;;6.13;2.38;;;7.00;73.20;;;;;;5025679;28;20132;-51
2022/12/27 02:26:30;;;;;;;7.93;2.70;;;7.00;73.40;;;;;;5010610;28;20082;-53
2022/12/27 02:29:34;;;;;;;4.90;2.10;;;7.00;73.20;;;;;;5020011;28;20038;-47
2022/12/27 02:32:21;;;;;;;6.38;2.70;;;7.00;73.20;;;;;;5020037;28;20070;-46
2022/12/27 02:35:02;;;;;;;8.20;3.05;;;7.00;73.00;;;;;;5022283;28;20514;-48
2022/12/27 02:37:32;;;;;;;4.10;2.05;;;7.00;73.10;;;;;;5023944;28;20037;-47
2022/12/27 02:55:25;;;;;;;6.30;3.22;;;7.00;73.20;;;;;;5027073;28;20446;-49
2022/12/27 02:58:19;;;;;;;5.85;2.38;;;7.00;73.50;;;;;;5016137;28;20499;-49
2022/12/27 03:04:01;;;;;;;5.22;2.40;;;7.00;73.50;;;;;;4994353;28;20053;-51
2022/12/27 03:06:46;;;;;;;4.90;2.57;;;7.00;73.60;;;;;;5023643;28;20120;-53
2022/12/27 03:16:20;;;;;;;6.57;2.50;;;7.00;73.60;;;;;;5014043;28;20506;-52
2022/12/27 03:18:58;;;;;;;4.32;1.95;;;7.10;74.00;;;;;;4943637;29;20122;-52
2022/12/27 03:27:34;;;;;;;4.28;2.20;;;7.00;73.80;;;;;;5021638;28;20049;-48
2022/12/27 03:33:12;;;;;;;5.55;2.25;;;7.00;73.80;;;;;;5020857;28;20117;-49
2022/12/27 03:38:01;;;;;;;7.85;2.13;;;7.10;74.10;;;;;;5021266;28;20124;-52
2022/12/27 03:38:42;;;;;;;7.95;2.38;;;7.10;74.10;;;;;;5017149;28;20124;-51
2022/12/27 03:43:58;;;;;;;6.03;2.60;;;7.10;74.00;;;;;;5021901;28;20041;-48
2022/12/27 03:46:34;;;;;;;6.40;2.63;;;7.10;73.90;;;;;;5027049;28;20041;-51
2022/12/27 03:49:27;;;;;;;4.88;1.77;;;7.10;74.00;;;;;;5024592;28;20068;-52
2022/12/27 03:52:13;;;;;;;6.55;2.63;;;7.10;74.00;;;;;;5024245;28;20029;-49
2022/12/27 03:54:45;;;;;;;5.07;1.92;;;7.10;74.40;;;;;;5022848;28;20051;-49
2022/12/27 03:57:15;;;;;;;4.07;1.90;;;7.10;74.30;;;;;;5028440;28;20045;-49
2022/12/27 03:59:44;;;;;;;3.25;2.17;;;7.10;74.10;;;;;;5015761;28;20074;-48
2022/12/27 04:02:13;;;;;;;6.85;2.00;;;7.10;74.30;;;;;;5014541;28;20062;-48
2022/12/27 04:04:40;;;;;;;3.78;1.98;;;7.10;74.30;;;;;;5014894;28;20046;-48
2022/12/27 04:07:07;;;;;;;4.13;1.95;;;7.20;74.30;;;;;;5017128;28;20042;-49
2022/12/27 04:34:44;;;;;;;7.10;2.42;;;7.20;74.20;;;;;;5013146;28;20052;-47
2022/12/27 04:37:14;;;;;;;10.05;2.45;;;7.20;74.20;;;;;;5011917;28;20052;-49
2022/12/27 04:56:22;;;;;;;5.03;2.05;;;7.20;74.20;;;;;;5014875;28;20052;-52
2022/12/27 05:04:25;;;;;;;5.47;2.28;;;7.20;74.20;;;;;;5017233;28;20621;-53
2022/12/27 05:06:52;;;;;;;3.72;2.33;;;7.20;74.10;;;;;;5017664;28;20534;-53
2022/12/27 05:14:57;;;;;;;8.52;2.33;;;7.10;74.10;;;;;;4975636;28;20053;-51
2022/12/27 05:17:29;;;;;;;7.35;2.38;;;7.10;74.10;;;;;;5011817;28;20073;-50
2022/12/27 05:19:57;;;;;;;2.70;1.92;;;7.20;74.20;;;;;;5026598;28;20049;-51
2022/12/27 05:25:37;;;;;;;3.85;2.10;;;7.10;74.20;;;;;;5002351;28;20073;-50
2022/12/27 05:28:09;;;;;;;7.30;2.33;;;7.10;74.20;;;;;;5022670;28;20124;-49
2022/12/27 05:30:40;;;;;;;5.32;2.38;;;7.10;74.20;;;;;;5009908;28;20041;-48
2022/12/27 05:33:10;;;;;;;3.45;1.95;;;7.10;74.30;;;;;;5025971;28;20468;-51
2022/12/27 05:35:38;;;;;;;5.47;2.40;;;7.10;74.30;;;;;;5019915;28;20103;-51
2022/12/27 05:38:05;;;;;;;4.72;2.08;;;7.10;74.30;;;;;;5027243;28;20532;-49
2022/12/27 05:40:32;;;;;;;6.78;2.20;;;7.10;74.30;;;;;;5023245;28;20045;-51
2022/12/27 05:43:05;;;;;;;4.50;2.13;;;7.10;74.30;;;;;;5026284;28;20051;-48
2022/12/27 05:45:31;;;;;;;3.03;1.90;;;7.10;74.40;;;;;;5029388;28;20121;-50
2022/12/27 05:47:58;;;;;;;6.32;2.38;;;7.10;74.40;;;;;;5017937;28;20073;-49
2022/12/27 05:50:26;;;;;;;7.10;2.10;;;7.10;74.40;;;;;;5019887;28;20065;-51
2022/12/27 05:53:06;;;;;;;6.18;2.22;;;7.10;74.40;;;;;;5016202;28;20049;-49
2022/12/27 05:55:40;;;;;;;4.75;2.15;;;7.10;74.40;;;;;;5022973;28;20569;-48
2022/12/27 05:58:07;;;;;;;6.55;2.15;;;7.10;74.40;;;;;;5029881;28;20387;-49
2022/12/27 06:00:36;;;;;;;9.05;3.28;;;7.00;74.30;;;;;;5014052;28;20156;-49
2022/12/27 06:03:02;;;;;;;3.83;1.77;;;7.10;74.50;;;;;;5023427;28;20034;-47
2022/12/27 06:05:32;;;;;;;7.88;2.55;;;7.10;74.50;;;;;;5024433;28;20041;-47
2022/12/27 06:07:59;;;;;;;5.55;2.15;;;7.10;74.50;;;;;;5019182;28;20041;-48
2022/12/27 06:10:31;;;;;;;7.55;2.40;;;7.10;74.50;;;;;;5003911;28;20025;-48
2022/12/27 06:13:00;;;;;;;6.07;2.03;;;7.00;74.50;;;;;;5025682;28;20509;-47
2022/12/27 06:15:27;;;;;;;3.58;1.95;;;7.10;74.50;;;;;;5023387;28;20534;-48
2022/12/27 06:17:56;;;;;;;3.97;2.17;;;7.00;74.40;;;;;;5023863;28;20048;-49
2022/12/27 06:20:26;;;;;;;6.28;2.10;;;7.00;74.50;;;;;;5021796;28;20116;-50
2022/12/27 06:22:53;;;;;;;4.22;2.00;;;7.00;74.50;;;;;;5025043;28;20414;-49
2022/12/27 06:25:19;;;;;;;6.38;1.90;;;7.00;74.50;;;;;;5029450;28;20049;-50
2022/12/27 06:27:46;;;;;;;6.47;2.40;;;7.00;74.50;;;;;;5020964;28;20064;-49
2022/12/27 06:30:14;;;;;;;6.20;2.60;;;7.00;74.50;;;;;;5029565;28;20117;-48
2022/12/27 06:32:40;;;;;;;9.65;3.13;;;7.00;74.60;;;;;;5027224;28;20042;-49
2022/12/27 06:35:07;;;;;;;6.88;3.47;;;7.00;74.70;;;;;;5026054;28;20051;-51
2022/12/27 06:37:37;;;;;;;7.47;2.53;;;7.00;74.70;;;;;;5017714;28;20054;-49
2022/12/27 06:40:04;;;;;;;5.65;2.58;;;7.00;74.70;;;;;;5010319;28;20133;-49
2022/12/27 06:42:31;;;;;;;6.28;2.40;;;7.00;74.80;;;;;;5012653;28;20041;-49
2022/12/27 06:45:05;;;;;;;4.15;2.47;;;6.90;74.70;;;;;;5028689;28;20095;-51
2022/12/27 06:47:36;;;;;;;11.18;3.35;;;6.90;74.80;;;;;;5017487;28;20042;-52
2022/12/27 06:50:03;;;;;;;6.57;2.83;;;6.90;74.80;;;;;;5010053;28;20141;-50
2022/12/27 06:52:32;;;;;;;4.05;2.30;;;6.90;74.70;;;;;;5020021;28;20057;-53
2022/12/27 06:55:06;;;;;;;4.43;2.40;;;6.90;74.70;;;;;;5018817;28;20041;-53
2022/12/27 06:57:33;;;;;;;5.47;2.13;;;6.90;74.70;;;;;;5030185;28;20076;-53
2022/12/27 07:00:06;;;;;;;4.65;2.45;;;6.90;74.80;;;;;;5007169;28;20088;-50
2022/12/27 07:02:36;;;;;;;4.50;2.53;;;6.90;74.90;;;;;;5024423;28;20509;-47
2022/12/27 07:05:06;;;;;;;8.02;3.03;;;6.90;74.90;;;;;;5022909;28;20041;-52
2022/12/27 07:07:33;;;;;;;4.38;2.45;;;6.90;74.90;;;;;;5029527;28;20513;-53
2022/12/27 07:10:02;;;;;;;8.00;2.33;;;6.90;75.00;;;;;;5024241;28;20088;-49
2022/12/27 07:12:29;;;;;;;4.13;2.13;;;6.90;75.10;;;;;;5019730;28;20445;-53
2022/12/27 07:15:04;;;;;;;6.50;2.58;;;6.90;75.10;;;;;;5012970;28;20050;-49
2022/12/27 07:17:35;;;;;;;6.50;3.17;;;6.90;75.20;;;;;;5020284;28;20394;-53
2022/12/27 07:20:06;;;;;;;6.53;2.97;;;6.90;75.20;;;;;;5020027;28;20095;-53
2022/12/27 07:22:33;;;;;;;5.20;2.23;;;6.90;75.20;;;;;;5018670;28;20049;-51
2022/12/27 07:25:06;;;;;;;5.30;2.67;;;6.90;75.20;;;;;;4995716;28;20046;-52
2022/12/27 07:27:35;;;;;;;6.28;2.63;;;6.90;75.20;;;;;;5017191;28;20041;-53
2022/12/27 07:30:06;;;;;;;5.50;2.63;;;6.90;75.10;;;;;;5016947;28;20573;-50
2022/12/27 07:32:32;;;;;;;6.13;2.58;;;6.90;75.10;;;;;;5011850;28;20034;-48
2022/12/27 07:34:59;;;;;;;5.13;2.45;;;6.90;75.10;;;;;;5013174;28;20103;-49
2022/12/27 07:37:26;;;;;;;5.40;2.33;;;6.90;75.10;;;;;;5015258;28;20045;-53
2022/12/27 07:39:55;;;;;;;9.10;3.17;;;6.90;75.20;;;;;;5017799;28;20048;-53
2022/12/27 07:42:24;;;;;;;6.10;2.75;;;6.90;75.10;;;;;;5020082;28;20046;-49
2022/12/27 07:44:51;;;;;;;9.13;2.88;;;6.90;75.20;;;;;;5016989;28;20120;-48
2022/12/27 07:47:17;;;;;;;6.50;2.50;;;6.90;75.40;;;;;;5021734;28;20818;-52
2022/12/27 07:49:44;;;;;;;7.22;2.90;;;6.90;75.50;;;;;;5013788;28;20042;-49
2022/12/27 07:52:11;;;;;;;8.25;3.00;;;7.00;75.60;;;;;;5001859;28;20050;-47
2022/12/27 07:54:37;;;;;;;5.88;3.33;;;7.00;75.60;;;;;;5011527;28;20037;-52
2022/12/27 07:57:04;;;;;;;5.25;3.17;;;7.00;75.60;;;;;;5025009;28;20088;-51
2022/12/27 07:59:33;;;;;;;6.55;3.20;;;7.00;75.50;;;;;;5026678;28;20041;-48
2022/12/27 08:02:03;;;;;;;5.65;3.45;;;7.00;75.40;;;;;;5020951;28;20069;-49
2022/12/27 08:04:32;;;;;;;7.55;3.30;;;7.00;75.40;;;;;;5011960;28;21556;-48
2022/12/27 08:07:18;;;;;;;6.57;2.78;;;7.00;75.40;;;;;;5019719;28;20152;-48
2022/12/27 08:09:46;;;;;;;7.75;2.90;;;7.10;75.60;;;;;;5021777;28;20038;-50
2022/12/27 08:12:13;;;;;;;7.65;3.08;;;7.10;75.30;;;;;;5028437;28;20034;-48
2022/12/27 08:14:41;;;;;;;6.97;2.95;;;7.10;75.30;;;;;;5016384;28;20095;-49
2022/12/27 08:17:19;;;;;;;6.25;2.55;;;7.10;75.30;;;;;;5021367;28;20038;-48
2022/12/27 08:19:46;;;;;;;6.78;2.58;;;7.10;75.40;;;;;;5021364;28;20044;-49
2022/12/27 08:22:13;;;;;;;5.15;2.55;;;7.10;75.20;;;;;;5006494;28;20136;-49
2022/12/27 08:24:40;;;;;;;5.60;2.70;;;7.10;75.30;;;;;;5019764;28;20721;-51
2022/12/27 08:27:07;;;;;;;8.07;3.05;;;7.10;75.30;;;;;;5014130;28;20453;-53
2022/12/27 08:29:36;;;;;;;9.23;2.85;;;7.10;75.30;;;;;;5014671;28;20387;-48
2022/12/27 08:32:04;;;;;;;6.55;2.30;;;7.10;75.40;;;;;;5023874;28;20034;-47
2022/12/27 08:34:33;;;;;;;8.82;3.03;;;7.10;75.40;;;;;;5004881;28;20073;-50
2022/12/27 08:36:59;;;;;;;7.10;2.50;;;7.10;75.40;;;;;;5023564;28;20427;-52
2022/12/27 08:39:26;;;;;;;5.80;3.17;;;7.20;75.40;;;;;;5018069;28;20117;-52
2022/12/27 08:41:53;;;;;;;8.63;2.50;;;7.20;75.50;;;;;;5019140;28;20060;-53
2022/12/27 08:44:20;;;;;;;6.97;2.90;;;7.20;75.70;;;;;;5005094;28;20084;-53
2022/12/27 08:46:47;;;;;;;9.35;2.80;;;7.20;75.50;;;;;;5027219;28;20065;-53
2022/12/27 08:49:13;;;;;;;9.35;3.28;;;7.20;75.50;;;;;;5012380;28;20541;-52
2022/12/27 08:51:40;;;;;;;4.93;2.60;;;7.20;76.20;;;;;;5024618;28;20038;-52
2022/12/27 08:54:10;;;;;;;4.30;2.53;;;7.20;75.60;;;;;;5021109;28;20096;-52
2022/12/27 08:56:37;;;;;;;3.55;2.42;;;7.20;75.50;;;;;;5007701;28;20069;-53
2022/12/27 08:59:03;;;;;;;7.13;2.58;;;7.20;75.50;;;;;;5018064;28;20409;-53
2022/12/27 09:01:31;;;;;;;6.00;2.95;;;7.30;75.60;;;;;;5019893;28;20095;-50
2022/12/27 09:03:58;;;;;;;3.97;2.10;;;7.30;75.90;;;;;;5019780;28;20091;-50
2022/12/27 09:06:26;;;;;;;3.67;2.45;;;7.30;75.60;;;;;;5016780;28;20044;-51
2022/12/27 09:08:54;;;;;;;2.97;2.10;;;7.30;75.60;;;;;;5029480;28;20037;-49
2022/12/27 09:11:32;;;;;;;5.95;3.05;;;7.30;75.60;;;;;;5015521;28;20042;-52
2022/12/27 09:14:01;;;;;;;5.95;2.53;;;7.30;75.80;;;;;;5026380;28;20037;-54
2022/12/27 09:16:32;;;;;;;6.40;2.72;;;7.40;75.70;;;;;;5022309;28;20033;-50
2022/12/27 09:19:00;;;;;;;9.98;2.65;;;7.40;75.80;;;;;;5023842;28;20130;-50
2022/12/27 09:21:30;;;;;;;5.75;2.20;;;7.40;75.70;;;;;;5020502;28;20072;-53
2022/12/27 09:23:57;;;;;;;5.90;2.45;;;7.40;75.70;;;;;;5017592;28;20034;-52
2022/12/27 09:26:27;;;;;;;4.60;2.33;;;7.50;75.90;;;;;;5020488;28;20037;-51
2022/12/27 09:28:56;;;;;;;5.43;2.85;;;7.50;76.00;;;;;;5022996;28;20653;-49
2022/12/27 09:31:23;;;;;;;6.47;3.30;;;7.60;76.00;;;;;;5021068;28;20536;-50
2022/12/27 09:33:51;;;;;;;4.93;2.20;;;7.60;75.90;;;;;;5026421;28;20121;-51
2022/12/27 09:36:21;;;;;;;6.90;2.88;;;7.60;75.80;;;;;;5021177;28;20112;-50
2022/12/27 09:38:51;;;;;;;6.30;2.28;;;7.70;75.80;;;;;;5022243;28;20117;-47
2022/12/27 09:41:47;;;;;;;5.18;2.50;;;7.70;75.70;;;;;;5024824;28;20478;-50
2022/12/27 09:44:37;;;;;;;7.50;2.80;;;7.80;75.80;;;;;;5019742;28;20042;-50
2022/12/27 09:47:17;;;;;;;7.82;2.75;;;7.80;75.50;;;;;;5016551;28;20041;-50
2022/12/27 09:49:47;;;;;;;7.15;3.13;;;7.90;75.50;;;;;;5027879;28;20448;-50
2022/12/27 09:52:28;;;;;;;8.75;3.40;;;7.90;75.30;;;;;;5023391;28;20453;-53
2022/12/27 09:55:03;;;;;;;9.07;4.68;;;7.90;75.30;;;;;;5010608;28;20132;-53
2022/12/27 09:57:42;;;;;;;10.55;4.80;;;7.90;75.20;;;;;;5016536;28;20515;-53
2022/12/27 10:00:22;;;;;;;8.88;4.38;;;8.00;75.20;;;;;;5025490;28;20693;-52
2022/12/27 10:03:04;;;;;;;5.15;3.60;;;8.00;75.10;;;;;;5027222;28;20387;-48
2022/12/27 10:05:33;;;;;;;9.35;4.47;;;8.00;75.00;;;;;;5021160;28;20041;-52
2022/12/27 10:08:24;;;;;;;5.22;3.50;;;8.00;74.90;;;;;;5029665;28;20411;-51
2022/12/27 10:10:59;;;;;;;7.45;3.17;;;8.00;75.00;;;;;;5005175;28;20038;-52
2022/12/27 10:13:35;;;;;;;7.13;3.13;;;8.10;74.90;;;;;;5020628;28;20559;-53
2022/12/27 10:16:31;;;;;;;6.35;3.35;;;8.10;75.00;;;;;;5019842;28;20121;-49
2022/12/27 10:19:46;;;;;;;10.38;3.17;;;8.10;75.20;;;;;;5017845;28;20068;-50
2022/12/27 10:22:47;;;;;;;4.35;2.72;;;8.10;75.30;;;;;;5018786;28;20125;-50
2022/12/27 10:25:18;;;;;;;5.25;3.30;;;8.20;75.40;;;;;;5024903;28;20037;-49
2022/12/27 10:27:46;;;;;;;8.15;3.45;;;8.20;75.30;;;;;;5020274;28;20041;-53
2022/12/27 10:30:26;;;;;;;8.85;2.67;;;8.20;75.30;;;;;;5029515;28;20061;-53
2022/12/27 10:32:52;;;;;;;7.07;3.22;;;8.30;75.30;;;;;;5025404;28;20089;-50
2022/12/27 10:35:21;;;;;;;5.97;2.60;;;8.30;75.20;;;;;;5024921;28;20041;-53
2022/12/27 10:37:48;;;;;;;7.22;2.45;;;8.40;75.10;;;;;;5025033;28;20057;-53
2022/12/27 10:40:40;;;;;;;8.02;2.92;;;8.40;75.10;;;;;;5026699;28;20608;-53
2022/12/27 10:43:18;;;;;;;5.60;2.30;;;8.50;74.90;;;;;;5019024;28;20071;-53
2022/12/27 10:45:45;;;;;;;6.72;3.35;;;8.50;74.90;;;;;;5026211;28;20037;-53
2022/12/27 10:48:20;;;;;;;6.53;2.75;;;8.50;74.90;;;;;;5027282;28;20029;-53
2022/12/27 10:51:13;;;;;;;4.78;2.30;;;8.60;74.90;;;;;;5022842;28;20041;-53
2022/12/27 10:53:55;;;;;;;7.30;2.35;;;8.70;74.90;;;;;;5026660;28;20060;-53
2022/12/27 10:56:34;;;;;;;3.78;2.03;;;8.70;74.80;;;;;;5021598;28;20041;-53
2022/12/27 10:59:17;;;;;;;5.13;2.03;;;8.80;74.80;;;;;;5022066;28;20069;-53
2022/12/27 11:01:48;;;;;;;3.53;1.95;;;8.80;74.60;;;;;;5009265;28;20037;-52
2022/12/27 11:04:25;;;;;;;3.33;2.20;;;8.90;74.50;;;;;;5024038;28;20093;-51
2022/12/27 11:07:01;;;;;;;5.70;2.05;;;8.90;74.50;;;;;;5026927;28;20490;-52
2022/12/27 11:09:36;;;;;;;6.35;2.25;;;8.90;74.40;;;;;;5021184;28;20041;-50
2022/12/27 11:12:19;;;;;;;6.95;2.30;;;9.00;74.30;;;;;;5029898;28;20103;-50
2022/12/27 11:15:18;;;;;;;6.90;2.28;;;9.00;74.30;;;;;;5025487;28;20049;-51
2022/12/27 11:18:17;;;;;;;8.68;2.65;;;9.10;74.10;;;;;;5023075;28;20041;-53
2022/12/27 11:20:52;;;;;;;5.82;3.10;;;9.20;73.90;;;;;;5030017;28;20064;-53
2022/12/27 11:23:27;;;;;;;6.05;2.50;;;9.20;74.00;;;;;;5017144;28;20055;-52
2022/12/27 11:25:56;;;;;;;4.53;1.88;;;9.30;74.10;;;;;;5028182;28;20044;-53
2022/12/27 11:28:37;;;;;;;6.90;2.22;;;9.30;74.20;;;;;;5024004;28;20041;-52
2022/12/27 11:31:16;;;;;;;3.92;2.10;;;9.40;74.20;;;;;;5033425;28;20541;-49
2022/12/27 11:33:55;;;;;;;6.20;2.03;;;9.60;74.10;;;;;;5024686;28;20037;-49
2022/12/27 11:36:30;;;;;;;4.03;1.98;;;9.70;74.00;;;;;;5023281;28;20124;-51
2022/12/27 11:38:59;;;;;;;4.17;1.93;;;9.80;73.90;;;;;;5028595;28;20046;-48
2022/12/27 11:41:42;;;;;;;5.30;2.03;;;9.90;73.80;;;;;;5021627;28;20050;-49
2022/12/27 11:44:28;;;;;;;4.57;2.13;;;10.10;73.30;;;;;;5020732;28;20096;-47
2022/12/27 11:47:10;;;;;;;3.50;1.98;;;10.10;73.20;;;;;;5023599;28;20048;-53
2022/12/27 11:49:46;;;;;;;3.45;1.73;;;10.30;72.60;;;;;;5018358;28;20623;-52
2022/12/27 11:52:35;;;;;;;6.97;2.38;;;10.30;72.50;;;;;;5023418;28;20135;-49
2022/12/27 11:55:02;;;;;;;4.57;1.88;;;10.40;71.70;;;;;;5021365;28;20042;-55
2022/12/27 11:57:59;;;;;;;3.30;2.00;;;10.40;72.00;;;;;;5019324;28;20048;-51
2022/12/27 12:00:32;;;;;;;4.55;2.13;;;10.50;71.20;;;;;;5021813;28;20041;-53
2022/12/27 12:03:35;;;;;;;4.65;1.92;;;10.50;71.50;;;;;;5024947;28;20048;-50
2022/12/27 12:06:01;;;;;;;6.63;2.58;;;10.60;71.00;;;;;;5026567;28;20713;-53
2022/12/27 12:08:53;;;;;;;6.65;3.10;;;10.60;71.40;;;;;;5022879;28;20030;-48
2022/12/27 12:11:52;;;;;;;2.85;1.60;;;10.70;70.80;;;;;;5020653;28;20061;-51
2022/12/27 12:14:39;;;;;;;4.07;2.08;;;10.70;70.70;;;;;;5022798;28;20046;-52
2022/12/27 12:17:23;;;;;;;4.78;1.88;;;10.80;70.80;;;;;;5020214;28;20120;-53
2022/12/27 12:20:02;;;;;;;3.75;1.80;;;10.80;70.90;;;;;;5020842;28;20033;-52
2022/12/27 12:22:49;;;;;;;3.65;1.95;;;10.80;71.00;;;;;;5015579;28;20065;-54
2022/12/27 12:25:33;;;;;;;6.57;2.47;;;10.80;70.80;;;;;;5029370;28;20405;-54
2022/12/27 12:28:37;;;;;;;5.47;1.98;;;10.80;70.30;;;;;;5026144;28;20060;-54
2022/12/27 12:31:38;;;;;;;4.30;1.75;;;10.90;70.10;;;;;;5021854;28;20117;-52
2022/12/27 12:34:22;;;;;;;4.13;2.30;;;10.90;70.50;;;;;;5031672;28;20045;-53
2022/12/27 12:37:22;;;;;;;4.72;2.10;;;10.90;70.10;;;;;;5013114;28;20498;-51
2022/12/27 12:39:58;;;;;;;7.65;2.13;;;10.90;69.80;;;;;;5026011;28;20116;-53
2022/12/27 12:42:43;;;;;;;3.67;2.67;;;10.90;70.40;;;;;;5023308;28;20122;-54
2022/12/27 12:45:27;;;;;;;6.28;2.50;;;10.90;70.40;;;;;;5024802;28;20042;-53
2022/12/27 12:48:27;;;;;;;6.75;2.08;;;11.00;70.30;;;;;;5024434;28;20039;-50
2022/12/27 12:51:32;;;;;;;6.15;2.88;;;11.00;69.60;;;;;;5027950;28;20045;-54
2022/12/27 12:54:24;;;;;;;4.38;2.33;;;11.00;69.60;;;;;;5017620;28;20494;-52
2022/12/27 12:57:26;;;;;;;5.47;2.65;;;11.00;69.60;;;;;;5024374;28;20042;-52
2022/12/27 13:00:20;;;;;;;6.00;2.17;;;11.00;69.50;;;;;;5017653;28;20096;-51
2022/12/27 13:03:06;;;;;;;4.88;3.00;;;11.00;69.40;;;;;;5020778;28;20497;-52
2022/12/27 13:05:46;;;;;;;8.52;2.40;;;11.00;69.40;;;;;;5010223;28;20073;-51
2022/12/27 13:08:29;;;;;;;5.35;1.85;;;10.90;69.50;;;;;;5029490;28;20413;-52
2022/12/27 13:11:18;;;;;;;3.88;2.05;;;10.90;69.60;;;;;;5135393;22;20416;-51
2022/12/27 13:14:04;;;;;;;5.90;2.78;;;10.90;70.00;;;;;;5059403;28;20068;-53
2022/12/27 13:16:47;;;;;;;4.70;2.03;;;10.90;69.60;;;;;;5072247;28;20047;-53
2022/12/27 13:19:43;;;;;;;4.40;2.33;;;10.90;69.90;;;;;;5072043;28;20040;-51
2022/12/27 13:22:21;;;;;;;4.20;2.15;;;10.90;69.60;;;;;;5051543;28;20120;-53
2022/12/27 13:25:16;;;;;;;5.68;2.20;;;10.90;69.90;;;;;;5053445;28;20608;-50
2022/12/27 13:28:03;;;;;;;11.07;2.60;;;10.90;69.80;;;;;;5046667;28;20116;-53
2022/12/27 13:30:40;;;;;;;6.18;2.72;;;10.90;69.90;;;;;;5046353;28;20045;-53
2022/12/27 13:33:36;;;;;;;5.03;1.90;;;10.90;70.30;;;;;;5045227;28;20064;-52
2022/12/27 13:36:02;;;;;;;5.53;2.63;;;10.90;70.30;;;;;;5047253;28;20041;-54
2022/12/27 13:38:52;;;;;;;3.95;2.60;;;10.80;70.40;;;;;;5052661;28;20540;-51
2022/12/27 13:41:22;;;;;;;4.95;3.05;;;10.90;70.10;;;;;;5053391;28;20132;-53
2022/12/27 13:44:14;;;;;;;6.57;2.80;;;10.90;70.40;;;;;;5058228;28;20052;-51
2022/12/27 13:47:04;;;;;;;6.47;2.58;;;10.90;70.30;;;;;;5049118;28;20068;-53
2022/12/27 13:50:00;;;;;;;5.72;2.80;;;10.90;70.40;;;;;;5048993;28;20037;-49
2022/12/27 13:52:36;;;;;;;4.25;2.25;;;10.90;70.10;;;;;;5051261;28;20404;-53
2022/12/27 13:55:30;;;;;;;6.57;3.05;;;10.90;70.10;;;;;;5051499;28;20035;-50
2022/12/27 13:58:20;;;;;;;4.68;2.95;;;10.90;69.90;;;;;;5046021;28;20087;-52
2022/12/27 14:01:14;;;;;;;4.20;2.75;;;10.90;70.30;;;;;;5042042;28;20064;-55
2022/12/27 14:04:15;;;;;;;5.03;2.63;;;10.90;70.10;;;;;;5051317;28;20032;-51
2022/12/27 14:07:08;;;;;;;7.45;2.50;;;11.00;69.80;;;;;;5048796;28;20572;-54
2022/12/27 14:09:58;;;;;;;7.25;2.78;;;10.90;69.50;;;;;;5048943;28;20049;-51
2022/12/27 14:12:46;;;;;;;6.20;2.55;;;11.00;69.70;;;;;;5041057;28;20134;-55
2022/12/27 14:15:18;;;;;;;6.28;2.47;;;11.00;69.40;;;;;;5043879;28;20061;-53
2022/12/27 14:18:08;;;;;;;;;;;11.00;69.60;;;;;;5042271;28;20037;-55
2022/12/27 14:20:45;;;;;;;7.38;2.72;;;11.00;69.60;;;;;;5023897;28;19928;-54
2022/12/27 14:23:59;;;;;;;9.55;2.85;;;11.00;69.60;;;;;;5042545;28;20037;-55
2022/12/27 14:26:53;;;;;;;6.03;2.88;;;11.00;69.00;;;;;;4994530;28;20053;-51
2022/12/27 14:29:48;;;;;;;6.63;2.33;;;10.90;68.80;;;;;;5036746;28;20041;-55
2022/12/27 14:32:55;;;;;;;5.68;2.50;;;10.90;68.90;;;;;;5044050;28;20433;-55
2022/12/27 14:35:35;;;;;;;6.40;2.33;;;10.90;69.00;;;;;;5042221;28;20405;-55
2022/12/27 14:38:25;;;;;;;10.45;3.10;;;10.80;69.30;;;;;;5037707;28;20128;-51
2022/12/27 14:41:29;;;;;;;7.80;2.72;;;10.80;69.50;;;;;;5046018;28;20041;-53
2022/12/27 14:44:05;;;;;;;6.95;2.97;;;10.80;69.20;;;;;;5041707;28;20075;-53
2022/12/27 14:46:42;;;;;;;12.30;3.92;;;10.80;69.40;;;;;;5040014;28;20037;-54
2022/12/27 14:49:33;;;;;;;7.72;3.38;;;10.80;69.20;;;;;;5049663;28;20071;-53
2022/12/27 14:52:09;;;;;;;9.90;2.90;;;10.80;69.50;;;;;;5038402;28;20041;-53
2022/12/27 14:54:59;;;;;;;4.53;2.78;;;10.80;69.20;;;;;;5041201;28;20045;-51
2022/12/27 14:57:34;;;;;;;6.38;2.35;;;10.80;69.70;;;;;;5038151;28;20040;-55
2022/12/27 15:00:15;;;;;;;4.85;2.17;;;10.70;69.40;;;;;;5049277;28;20120;-54
2022/12/27 15:03:05;;;;;;;5.90;2.22;;;10.70;69.20;;;;;;5020573;28;20545;-55
2022/12/27 15:06:04;;;;;;;7.22;2.30;;;10.70;69.20;;;;;;5040405;28;20075;-55
2022/12/27 15:09:00;;;;;;;5.35;2.30;;;10.70;68.90;;;;;;5039406;28;20103;-54
2022/12/27 15:11:49;;;;;;;3.17;1.80;;;10.60;68.80;;;;;;5045339;28;20519;-52
2022/12/27 15:14:52;;;;;;;4.30;1.77;;;10.60;69.10;;;;;;5039529;28;20043;-54
2022/12/27 15:17:43;;;;;;;5.97;2.10;;;10.60;69.00;;;;;;5036249;28;20420;-51
2022/12/27 15:20:34;;;;;;;5.15;2.28;;;10.60;69.20;;;;;;5056023;28;20120;-54
2022/12/27 15:23:39;;;;;;;7.75;2.90;;;10.50;69.00;;;;;;5037141;28;20125;-54